createdAt,value
2019-01-25T00:02:12.631Z,100742.99
2019-01-25T00:04:42.179Z,100738.73
2019-01-25T00:07:11.768Z,100735.31
2019-01-25T00:09:41.410Z,100739.59
2019-01-25T00:12:11.077Z,100744.66
2019-01-25T00:14:41.580Z,100753.62
2019-01-25T00:17:11.374Z,100760.46
2019-01-25T00:19:41.016Z,100764.72
2019-01-25T00:22:11.726Z,100748.94
2019-01-25T00:24:42.497Z,100755.80
2019-01-25T00:27:12.199Z,100742.20
2019-01-25T00:29:41.768Z,100743.08
2019-01-25T00:32:11.364Z,100743.91
2019-01-25T00:34:40.951Z,100750.31
2019-01-25T00:37:10.520Z,100751.48
2019-01-25T00:39:40.106Z,100739.55
2019-01-25T00:42:09.721Z,100737.88
2019-01-25T00:44:39.277Z,100743.89
2019-01-25T00:47:08.883Z,100740.91
2019-01-25T00:49:38.717Z,100741.75
2019-01-25T00:52:08.332Z,100739.21
2019-01-25T00:54:37.916Z,100736.66
2019-01-25T00:57:07.832Z,100731.09
2019-01-25T00:59:38.973Z,100726.86
2019-01-25T01:02:08.575Z,100731.14
2019-01-25T01:04:38.226Z,100734.09
2019-01-25T01:07:08.661Z,100733.67
2019-01-25T01:09:38.254Z,100736.27
2019-01-25T01:12:09.017Z,100733.30
2019-01-25T01:14:40.703Z,100731.14
2019-01-25T01:17:10.309Z,100735.37
2019-01-25T01:19:39.886Z,100733.61
2019-01-25T01:22:09.475Z,100734.41
2019-01-25T01:24:39.044Z,100735.27
2019-01-25T01:27:08.705Z,100736.58
2019-01-25T01:29:38.562Z,100733.17
2019-01-25T01:32:08.500Z,100733.57
2019-01-25T01:34:38.064Z,100741.08
2019-01-25T01:37:07.715Z,100739.30
2019-01-25T01:39:38.446Z,100741.94
2019-01-25T01:42:08.021Z,100743.19
2019-01-25T01:44:37.606Z,100748.80
2019-01-25T01:47:07.449Z,100743.73
2019-01-25T01:49:36.998Z,100757.36
2019-01-25T01:52:06.594Z,100760.34
2019-01-25T01:54:36.226Z,100759.06
2019-01-25T01:57:05.939Z,100756.89
2019-01-25T01:59:37.234Z,100765.04
2019-01-25T02:02:07.180Z,100765.41
2019-01-25T02:04:36.773Z,100764.91
2019-01-25T02:07:06.421Z,100761.55
2019-01-25T02:09:36.017Z,100766.70
2019-01-25T02:12:05.664Z,100770.60
2019-01-25T02:14:35.582Z,100772.27
2019-01-25T02:17:06.206Z,100765.02
2019-01-25T02:19:37.452Z,100759.45
2019-01-25T02:22:07.048Z,100759.04
2019-01-25T02:24:36.610Z,100761.98
2019-01-25T02:27:06.373Z,100762.03
2019-01-25T02:29:35.959Z,100756.11
2019-01-25T02:32:05.662Z,100747.64
2019-01-25T02:34:35.259Z,100749.41
2019-01-25T02:37:05.153Z,100750.20
2019-01-25T02:39:36.205Z,100749.73
2019-01-25T02:42:05.864Z,100739.52
2019-01-25T02:44:35.457Z,100742.08
2019-01-25T02:47:05.106Z,100750.62
2019-01-25T02:49:34.682Z,100754.06
2019-01-25T02:52:04.442Z,100753.55
2019-01-25T02:54:34.021Z,100755.25
2019-01-25T02:57:03.626Z,100754.36
2019-01-25T02:59:33.194Z,100752.22
2019-01-25T03:02:02.760Z,100751.85
2019-01-25T03:04:32.349Z,100751.85
2019-01-25T03:07:01.923Z,100746.30
2019-01-25T03:09:31.776Z,100740.31
2019-01-25T03:12:01.385Z,100740.31
2019-01-25T03:14:30.973Z,100745.41
2019-01-25T03:17:00.544Z,100748.33
2019-01-25T03:19:30.149Z,100752.59
2019-01-25T03:21:59.744Z,100756.38
2019-01-25T03:24:29.301Z,100741.47
2019-01-25T03:26:58.891Z,100742.33
2019-01-25T03:29:28.489Z,100750.01
2019-01-25T03:31:58.057Z,100748.28
2019-01-25T03:34:27.631Z,100747.00
2019-01-25T03:36:57.219Z,100746.22
2019-01-25T03:39:26.789Z,100749.64
2019-01-25T03:41:56.382Z,100744.97
2019-01-25T03:44:25.952Z,100751.80
2019-01-25T03:46:55.797Z,100748.83
2019-01-25T03:49:25.383Z,100753.08
2019-01-25T03:51:54.956Z,100749.64
2019-01-25T03:54:24.531Z,100756.81
2019-01-25T03:56:54.128Z,100757.68
2019-01-25T03:59:23.730Z,100753.81
2019-01-25T04:01:53.307Z,100748.67
2019-01-25T04:04:22.890Z,100749.56
2019-01-25T04:06:52.460Z,100751.28
2019-01-25T04:09:22.075Z,100754.68
2019-01-25T04:11:51.722Z,100757.57
2019-01-25T04:14:21.308Z,100755.45
2019-01-25T04:16:50.894Z,100757.20
2019-01-25T04:19:20.554Z,100756.76
2019-01-25T04:21:50.131Z,100753.77
2019-01-25T04:24:19.690Z,100755.40
2019-01-25T04:26:49.259Z,100759.67
2019-01-25T04:29:18.819Z,100759.77
2019-01-25T04:31:48.409Z,100760.70
2019-01-25T04:34:17.970Z,100758.98
2019-01-25T04:36:47.542Z,100748.73
2019-01-25T04:39:17.117Z,100747.50
2019-01-25T04:41:46.688Z,100756.38
2019-01-25T04:44:16.264Z,100762.63
2019-01-25T04:46:45.837Z,100754.09
2019-01-25T04:49:15.418Z,100751.17
2019-01-25T04:51:45.030Z,100749.98
2019-01-25T04:54:14.618Z,100751.76
2019-01-25T04:56:44.203Z,100751.36
2019-01-25T04:59:13.769Z,100753.95
2019-01-25T05:01:43.420Z,100757.81
2019-01-25T05:04:12.958Z,100756.08
2019-01-25T05:06:42.593Z,100756.95
2019-01-25T05:09:12.162Z,100755.62
2019-01-25T05:11:44.442Z,100758.87
2019-01-25T05:14:14.002Z,100758.41
2019-01-25T05:16:43.587Z,100756.77
2019-01-25T05:19:13.136Z,100752.51
2019-01-25T05:21:42.710Z,100759.37
2019-01-25T05:24:12.687Z,100761.06
2019-01-25T05:26:42.275Z,100769.63
2019-01-25T05:29:11.816Z,100771.38
2019-01-25T05:31:41.413Z,100773.97
2019-01-25T05:34:10.948Z,100779.08
2019-01-25T05:36:40.495Z,100776.05
2019-01-25T05:39:10.077Z,100787.06
2019-01-25T05:41:39.654Z,100791.19
2019-01-25T05:44:09.194Z,100794.16
2019-01-25T05:46:38.761Z,100788.22
2019-01-25T05:49:08.421Z,100789.94
2019-01-25T05:51:37.957Z,100788.73
2019-01-25T05:54:07.754Z,100793.84
2019-01-25T05:56:41.861Z,100795.56
2019-01-25T05:59:11.440Z,100793.42
2019-01-25T06:01:44.823Z,100797.23
2019-01-25T06:04:14.389Z,100795.53
2019-01-25T06:06:45.437Z,100786.62
2019-01-25T06:09:21.465Z,100788.76
2019-01-25T06:11:52.783Z,100792.53
2019-01-25T06:14:22.335Z,100798.09
2019-01-25T06:16:51.894Z,100791.70
2019-01-25T06:19:21.540Z,100796.84
2019-01-25T06:21:55.342Z,100801.16
2019-01-25T06:24:24.880Z,100809.22
2019-01-25T06:26:54.564Z,100814.27
2019-01-25T06:29:25.753Z,100809.57
2019-01-25T06:31:55.298Z,100808.33
2019-01-25T06:34:24.854Z,100807.52
2019-01-25T06:36:54.418Z,100804.58
2019-01-25T06:39:25.785Z,100802.05
2019-01-25T06:41:55.655Z,100805.50
2019-01-25T06:44:25.194Z,100807.22
2019-01-25T06:46:55.955Z,100805.05
2019-01-25T06:49:25.571Z,100805.05
2019-01-25T06:51:55.109Z,100803.77
2019-01-25T06:54:24.667Z,100804.25
2019-01-25T06:56:54.231Z,100799.09
2019-01-25T06:59:23.842Z,100807.52
2019-01-25T07:01:55.041Z,100802.73
2019-01-25T07:04:24.586Z,100806.59
2019-01-25T07:06:54.140Z,100803.27
2019-01-25T07:09:23.762Z,100811.39
2019-01-25T07:11:55.539Z,100811.84
2019-01-25T07:14:25.149Z,100809.66
2019-01-25T07:16:54.718Z,100813.50
2019-01-25T07:19:24.269Z,100815.23
2019-01-25T07:21:53.820Z,100814.39
2019-01-25T07:24:27.935Z,100819.06
2019-01-25T07:26:57.553Z,100817.34
2019-01-25T07:29:27.108Z,100815.70
2019-01-25T07:31:57.141Z,100813.59
2019-01-25T07:34:26.754Z,100813.98
2019-01-25T07:36:56.294Z,100819.98
2019-01-25T07:39:28.792Z,100820.88
2019-01-25T07:41:59.434Z,100811.95
2019-01-25T07:44:30.022Z,100814.56
2019-01-25T07:46:59.593Z,100806.50
2019-01-25T07:49:29.176Z,100806.08
2019-01-25T07:51:59.935Z,100809.80
2019-01-25T07:54:29.718Z,100813.53
2019-01-25T07:56:59.348Z,100813.91
2019-01-25T07:59:28.912Z,100820.37
2019-01-25T08:01:58.477Z,100822.00
2019-01-25T08:04:31.662Z,100818.64
2019-01-25T08:07:01.206Z,100815.28
2019-01-25T08:09:31.215Z,100821.77
2019-01-25T08:12:07.371Z,100820.56
2019-01-25T08:14:32.117Z,100818.51
2019-01-25T08:17:03.253Z,100812.55
2019-01-25T08:19:32.868Z,100805.33
2019-01-25T08:22:02.422Z,100801.55
2019-01-25T08:24:31.985Z,100803.70
2019-01-25T08:27:01.580Z,100808.89
2019-01-25T08:29:31.156Z,100806.81
2019-01-25T08:32:00.808Z,100808.53
2019-01-25T08:34:30.377Z,100813.23
2019-01-25T08:37:00.017Z,100807.24
2019-01-25T08:39:29.556Z,100808.89
2019-01-25T08:41:59.140Z,100808.91
2019-01-25T08:44:28.701Z,100811.08
2019-01-25T08:46:58.259Z,100806.39
2019-01-25T08:49:28.035Z,100806.84
2019-01-25T08:51:59.108Z,100803.05
2019-01-25T08:54:28.721Z,100805.62
2019-01-25T08:56:58.318Z,100806.91
2019-01-25T08:59:27.886Z,100812.50
2019-01-25T09:01:57.759Z,100818.47
2019-01-25T09:04:27.954Z,100815.09
2019-01-25T09:06:57.509Z,100822.38
2019-01-25T09:09:28.629Z,100823.67
2019-01-25T09:11:58.177Z,100827.95
2019-01-25T09:14:27.734Z,100843.34
2019-01-25T09:16:57.317Z,100842.06
2019-01-25T09:19:26.855Z,100832.67
2019-01-25T09:21:56.395Z,100838.61
2019-01-25T09:24:25.958Z,100833.52
2019-01-25T09:26:55.490Z,100819.40
2019-01-25T09:29:25.066Z,100824.13
2019-01-25T09:31:56.863Z,100826.28
2019-01-25T09:34:27.966Z,100825.45
2019-01-25T09:36:57.501Z,100827.19
2019-01-25T09:39:27.063Z,100817.80
2019-01-25T09:41:56.621Z,100812.25
2019-01-25T09:44:28.591Z,100813.55
2019-01-25T09:46:59.776Z,100822.11
2019-01-25T09:49:29.341Z,100822.96
2019-01-25T09:51:59.705Z,100822.55
2019-01-25T09:54:29.273Z,100827.25
2019-01-25T09:56:58.859Z,100828.53
2019-01-25T09:59:28.596Z,100819.98
2019-01-25T10:01:58.154Z,100819.98
2019-01-25T10:04:27.838Z,100821.72
2019-01-25T10:06:57.395Z,100819.15
2019-01-25T10:09:27.022Z,100819.16
2019-01-25T10:11:56.591Z,100819.16
2019-01-25T10:14:26.372Z,100808.89
2019-01-25T10:16:55.944Z,100808.88
2019-01-25T10:19:25.501Z,100802.07
2019-01-25T10:21:55.066Z,100793.92
2019-01-25T10:24:24.643Z,100784.95
2019-01-25T10:26:54.184Z,100784.11
2019-01-25T10:29:23.756Z,100774.27
2019-01-25T10:31:53.308Z,100776.44
2019-01-25T10:34:22.935Z,100764.89
2019-01-25T10:36:52.525Z,100767.88
2019-01-25T10:39:22.048Z,100765.30
2019-01-25T10:41:51.589Z,100771.29
2019-01-25T10:44:21.129Z,100770.01
2019-01-25T10:46:52.334Z,100773.02
2019-01-25T10:49:22.021Z,100776.43
2019-01-25T10:51:51.595Z,100772.59
2019-01-25T10:54:21.181Z,100777.29
2019-01-25T10:56:50.725Z,100771.28
2019-01-25T10:59:20.284Z,100765.74
2019-01-25T11:01:49.810Z,100762.72
2019-01-25T11:04:19.382Z,100761.44
2019-01-25T11:06:48.928Z,100766.13
2019-01-25T11:09:18.475Z,100758.00
2019-01-25T11:11:49.108Z,100751.14
2019-01-25T11:14:18.668Z,100749.84
2019-01-25T11:16:48.203Z,100738.30
2019-01-25T11:19:17.767Z,100730.59
2019-01-25T11:21:47.332Z,100730.98
2019-01-25T11:24:16.918Z,100734.84
2019-01-25T11:26:46.442Z,100721.56
2019-01-25T11:29:16.043Z,100715.55
2019-01-25T11:31:47.092Z,100708.25
2019-01-25T11:34:16.668Z,100704.38
2019-01-25T11:36:46.229Z,100716.38
2019-01-25T11:39:15.902Z,100715.48
2019-01-25T11:41:45.469Z,100718.51
2019-01-25T11:44:15.007Z,100713.78
2019-01-25T11:46:44.735Z,100715.47
2019-01-25T11:49:14.259Z,100708.19
2019-01-25T11:51:43.811Z,100709.47
2019-01-25T11:54:13.369Z,100706.00
2019-01-25T11:56:46.762Z,100707.71
2019-01-25T11:59:16.357Z,100714.98
2019-01-25T12:01:49.166Z,100718.82
2019-01-25T12:04:18.781Z,100722.64
2019-01-25T12:06:48.324Z,100715.77
2019-01-25T12:09:17.853Z,100723.04
2019-01-25T12:11:51.466Z,100720.48
2019-01-25T12:14:21.061Z,100722.25
2019-01-25T12:16:50.634Z,100721.37
2019-01-25T12:19:20.159Z,100728.63
2019-01-25T12:21:49.721Z,100733.34
2019-01-25T12:24:19.270Z,100741.46
2019-01-25T12:26:48.833Z,100737.18
2019-01-25T12:29:18.436Z,100742.72
2019-01-25T12:31:47.998Z,100729.44
2019-01-25T12:34:17.556Z,100717.88
2019-01-25T12:36:47.108Z,100718.71
2019-01-25T12:39:18.017Z,100718.70
2019-01-25T12:41:47.996Z,100713.56
2019-01-25T12:44:17.823Z,100710.14
2019-01-25T12:46:47.369Z,100711.43
2019-01-25T12:49:16.918Z,100709.72
2019-01-25T12:51:47.715Z,100713.18
2019-01-25T12:54:17.308Z,100711.43
2019-01-25T12:56:47.111Z,100701.95
2019-01-25T12:59:16.645Z,100699.81
2019-01-25T13:01:46.196Z,100689.55
2019-01-25T13:04:16.354Z,100694.22
2019-01-25T13:06:46.047Z,100686.04
2019-01-25T13:09:19.505Z,100680.48
2019-01-25T13:11:48.800Z,100675.74
2019-01-25T13:14:18.356Z,100675.72
2019-01-25T13:16:47.935Z,100679.16
2019-01-25T13:19:17.483Z,100680.41
2019-01-25T13:21:47.029Z,100670.05
2019-01-25T13:24:16.611Z,100665.72
2019-01-25T13:26:46.184Z,100656.27
2019-01-25T13:29:16.121Z,100654.98
2019-01-25T13:31:48.452Z,100660.94
2019-01-25T13:34:18.223Z,100654.91
2019-01-25T13:36:56.797Z,100657.05
2019-01-25T13:39:21.527Z,100651.88
2019-01-25T13:41:51.078Z,100647.14
2019-01-25T13:44:20.903Z,100635.20
2019-01-25T13:46:50.434Z,100635.17
2019-01-25T13:49:19.992Z,100630.47
2019-01-25T13:51:49.544Z,100622.69
2019-01-25T13:54:19.079Z,100621.83
2019-01-25T13:56:48.657Z,100619.27
2019-01-25T13:59:18.224Z,100614.52
2019-01-25T14:01:47.737Z,100621.80
2019-01-25T14:04:17.303Z,100620.55
2019-01-25T14:06:46.849Z,100606.39
2019-01-25T14:09:16.900Z,100600.30
2019-01-25T14:11:46.526Z,100618.72
2019-01-25T14:14:16.073Z,100596.02
2019-01-25T14:16:45.623Z,100600.22
2019-01-25T14:19:15.177Z,100598.88
2019-01-25T14:21:44.722Z,100598.88
2019-01-25T14:24:16.639Z,100591.16
2019-01-25T14:26:45.795Z,100590.27
2019-01-25T14:29:15.340Z,100585.08
2019-01-25T14:31:44.913Z,100575.24
2019-01-25T14:34:14.450Z,100562.80
2019-01-25T14:36:43.986Z,100555.41
2019-01-25T14:39:13.513Z,100553.23
2019-01-25T14:41:43.326Z,100551.48
2019-01-25T14:44:13.116Z,100547.16
2019-01-25T14:46:42.664Z,100544.98
2019-01-25T14:49:12.221Z,100547.48
2019-01-25T14:51:41.850Z,100548.27
2019-01-25T14:54:11.415Z,100549.59
2019-01-25T14:56:40.963Z,100546.13
2019-01-25T14:59:10.807Z,100543.59
2019-01-25T15:01:40.356Z,100536.36
2019-01-25T15:04:09.927Z,100532.95
2019-01-25T15:06:39.470Z,100538.03
2019-01-25T15:09:10.373Z,100536.29
2019-01-25T15:11:40.098Z,100532.95
2019-01-25T15:14:09.707Z,100532.45
2019-01-25T15:16:41.917Z,100539.79
2019-01-25T15:19:11.518Z,100538.89
2019-01-25T15:21:41.103Z,100534.64
2019-01-25T15:24:10.650Z,100529.09
2019-01-25T15:26:40.220Z,100521.41
2019-01-25T15:29:09.744Z,100524.41
2019-01-25T15:31:39.331Z,100514.50
2019-01-25T15:34:12.992Z,100518.26
2019-01-25T15:36:42.560Z,100517.40
2019-01-25T15:39:12.222Z,100513.57
2019-01-25T15:41:41.995Z,100515.22
2019-01-25T15:44:11.538Z,100522.05
2019-01-25T15:46:41.068Z,100522.48
2019-01-25T15:49:10.733Z,100523.77
2019-01-25T15:51:40.341Z,100518.22
2019-01-25T15:54:12.275Z,100526.30
2019-01-25T15:56:41.882Z,100523.41
2019-01-25T15:59:11.417Z,100521.66
2019-01-25T16:01:40.957Z,100517.36
2019-01-25T16:04:10.485Z,100512.24
2019-01-25T16:06:40.040Z,100508.38
2019-01-25T16:09:14.089Z,100513.14
2019-01-25T16:11:42.740Z,100509.70
2019-01-25T16:14:17.865Z,100514.36
2019-01-25T16:16:43.864Z,100509.63
2019-01-25T16:19:13.385Z,100507.87
2019-01-25T16:21:43.196Z,100504.91
2019-01-25T16:24:14.278Z,100507.06
2019-01-25T16:26:44.430Z,100510.45
2019-01-25T16:29:14.050Z,100500.63
2019-01-25T16:31:45.233Z,100489.89
2019-01-25T16:34:17.946Z,100494.65
2019-01-25T16:36:47.463Z,100498.12
2019-01-25T16:39:16.996Z,100490.94
2019-01-25T16:41:46.563Z,100476.69
2019-01-25T16:44:25.377Z,100478.98
2019-01-25T16:46:49.833Z,100464.79
2019-01-25T16:49:19.389Z,100463.46
2019-01-25T16:51:48.930Z,100463.94
2019-01-25T16:54:18.500Z,100460.89
2019-01-25T16:56:48.025Z,100459.13
2019-01-25T16:59:17.565Z,100462.72
2019-01-25T17:01:47.141Z,100463.58
2019-01-25T17:04:16.730Z,100460.57
2019-01-25T17:06:46.232Z,100458.39
2019-01-25T17:09:15.798Z,100460.64
2019-01-25T17:11:46.895Z,100451.67
2019-01-25T17:14:16.510Z,100467.12
2019-01-25T17:16:46.064Z,100456.39
2019-01-25T17:19:18.559Z,100456.96
2019-01-25T17:21:48.107Z,100455.64
2019-01-25T17:24:17.649Z,100450.49
2019-01-25T17:26:47.195Z,100452.24
2019-01-25T17:29:18.518Z,100453.10
2019-01-25T17:31:48.132Z,100451.38
2019-01-25T17:34:17.678Z,100441.13
2019-01-25T17:36:47.192Z,100433.41
2019-01-25T17:39:17.025Z,100427.79
2019-01-25T17:41:46.583Z,100420.53
2019-01-25T17:44:16.119Z,100420.50
2019-01-25T17:46:45.935Z,100417.42
2019-01-25T17:49:17.178Z,100419.95
2019-01-25T17:51:47.492Z,100413.95
2019-01-25T17:54:17.042Z,100409.73
2019-01-25T17:56:46.591Z,100409.34
2019-01-25T17:59:16.181Z,100400.84
2019-01-25T18:01:45.932Z,100399.48
2019-01-25T18:04:15.476Z,100395.73
2019-01-25T18:06:45.012Z,100397.80
2019-01-25T18:09:14.546Z,100385.83
2019-01-25T18:11:47.589Z,100369.88
2019-01-25T18:14:17.118Z,100366.48
2019-01-25T18:16:46.677Z,100361.88
2019-01-25T18:19:16.238Z,100360.95
2019-01-25T18:21:45.783Z,100357.47
2019-01-25T18:24:15.338Z,100351.83
2019-01-25T18:26:44.882Z,100347.14
2019-01-25T18:29:14.484Z,100350.61
2019-01-25T18:31:44.043Z,100338.95
2019-01-25T18:34:13.595Z,100331.23
2019-01-25T18:36:43.175Z,100326.47
2019-01-25T18:39:12.938Z,100332.95
2019-01-25T18:41:42.511Z,100318.36
2019-01-25T18:44:12.345Z,100320.93
2019-01-25T18:46:43.139Z,100317.92
2019-01-25T18:49:12.740Z,100324.80
2019-01-25T18:51:42.274Z,100320.93
2019-01-25T18:54:11.851Z,100325.61
2019-01-25T18:56:41.700Z,100325.53
2019-01-25T18:59:11.235Z,100315.66
2019-01-25T19:01:41.017Z,100312.61
2019-01-25T19:04:10.564Z,100305.61
2019-01-25T19:06:40.110Z,100299.09
2019-01-25T19:09:09.831Z,100299.91
2019-01-25T19:11:39.355Z,100291.66
2019-01-25T19:14:08.916Z,100289.89
2019-01-25T19:16:38.496Z,100293.70
2019-01-25T19:19:08.305Z,100291.47
2019-01-25T19:21:38.608Z,100293.14
2019-01-25T19:24:08.579Z,100286.70
2019-01-25T19:26:38.109Z,100288.37
2019-01-25T19:29:07.637Z,100285.79
2019-01-25T19:31:37.424Z,100279.73
2019-01-25T19:34:07.027Z,100279.69
2019-01-25T19:36:36.576Z,100279.25
2019-01-25T19:39:09.126Z,100270.62
2019-01-25T19:41:40.766Z,100267.13
2019-01-25T19:44:10.430Z,100264.18
2019-01-25T19:46:39.956Z,100266.75
2019-01-25T19:49:09.560Z,100264.98
2019-01-25T19:51:39.168Z,100266.23
2019-01-25T19:54:11.897Z,100257.63
2019-01-25T19:56:41.515Z,100260.59
2019-01-25T19:59:11.167Z,100255.39
2019-01-25T20:01:40.813Z,100255.38
2019-01-25T20:04:10.563Z,100256.19
2019-01-25T20:06:40.111Z,100248.03
2019-01-25T20:09:09.965Z,100249.31
2019-01-25T20:11:39.501Z,100243.31
2019-01-25T20:14:09.056Z,100233.48
2019-01-25T20:16:38.918Z,100234.59
2019-01-25T20:19:08.712Z,100238.00
2019-01-25T20:21:38.637Z,100235.42
2019-01-25T20:24:10.069Z,100238.09
2019-01-25T20:26:42.846Z,100236.33
2019-01-25T20:29:12.384Z,100228.59
2019-01-25T20:31:41.988Z,100231.13
2019-01-25T20:34:11.555Z,100229.78
2019-01-25T20:36:41.086Z,100224.14
2019-01-25T20:39:10.647Z,100227.19
2019-01-25T20:41:40.201Z,100231.38
2019-01-25T20:44:11.413Z,100228.87
2019-01-25T20:46:41.040Z,100230.97
2019-01-25T20:49:10.610Z,100231.39
2019-01-25T20:51:40.134Z,100227.47
2019-01-25T20:54:09.759Z,100225.68
2019-01-25T20:56:39.341Z,100230.00
2019-01-25T20:59:08.866Z,100228.31
2019-01-25T21:01:38.466Z,100229.94
2019-01-25T21:04:08.054Z,100227.34
2019-01-25T21:06:39.463Z,100217.89
2019-01-25T21:09:09.426Z,100223.53
2019-01-25T21:11:39.454Z,100210.59
2019-01-25T21:14:09.530Z,100210.98
2019-01-25T21:16:39.147Z,100207.91
2019-01-25T21:19:08.686Z,100205.43
2019-01-25T21:21:39.828Z,100211.29
2019-01-25T21:24:10.829Z,100216.00
2019-01-25T21:26:41.429Z,100212.52
2019-01-25T21:29:10.972Z,100215.16
2019-01-25T21:31:40.600Z,100213.44
2019-01-25T21:34:10.149Z,100216.81
2019-01-25T21:36:40.212Z,100218.04
2019-01-25T21:39:10.090Z,100218.04
2019-01-25T21:41:41.374Z,100213.25
2019-01-25T21:44:11.012Z,100205.95
2019-01-25T21:46:40.917Z,100205.08
2019-01-25T21:49:11.813Z,100201.22
2019-01-25T21:51:41.385Z,100202.44
2019-01-25T21:54:10.931Z,100193.01
2019-01-25T21:56:40.877Z,100186.11
2019-01-25T21:59:10.535Z,100183.53
2019-01-25T22:01:43.163Z,100182.55
2019-01-25T22:04:31.867Z,100174.39
2019-01-25T22:07:01.371Z,100176.91
2019-01-25T22:09:33.702Z,100179.05
2019-01-25T22:12:03.228Z,100171.27
2019-01-25T22:14:32.748Z,100167.75
2019-01-25T22:17:02.356Z,100163.47
2019-01-25T22:19:31.964Z,100164.27
2019-01-25T22:22:01.521Z,100169.84
2019-01-25T22:24:31.064Z,100168.91
2019-01-25T22:27:00.612Z,100168.31
2019-01-25T22:29:30.147Z,100178.33
2019-01-25T22:32:03.066Z,100172.23
2019-01-25T22:34:32.881Z,100175.11
2019-01-25T22:37:02.424Z,100160.00
2019-01-25T22:39:32.236Z,100165.17
2019-01-25T22:42:01.769Z,100160.00
2019-01-25T22:44:31.308Z,100157.42
2019-01-25T22:47:00.865Z,100155.22
2019-01-25T22:49:30.391Z,100166.27
2019-01-25T22:52:03.018Z,100160.23
2019-01-25T22:54:32.576Z,100165.45
2019-01-25T22:57:02.195Z,100148.49
2019-01-25T22:59:31.865Z,100165.27
2019-01-25T23:02:01.396Z,100155.19
2019-01-25T23:04:50.159Z,100150.01
2019-01-25T23:07:19.718Z,100153.95
2019-01-25T23:09:49.240Z,100155.09
2019-01-25T23:12:18.782Z,100160.14
2019-01-25T23:14:48.399Z,100149.81
2019-01-25T23:17:18.039Z,100152.81
2019-01-25T23:19:51.097Z,100148.86
2019-01-25T23:22:20.386Z,100140.27
2019-01-25T23:24:49.995Z,100138.44
2019-01-25T23:27:19.527Z,100146.95
2019-01-25T23:29:49.150Z,100141.77
2019-01-25T23:32:18.698Z,100152.98
2019-01-25T23:34:48.220Z,100142.88
2019-01-25T23:37:17.818Z,100142.42
2019-01-25T23:39:47.306Z,100144.95
2019-01-25T23:42:16.850Z,100138.91
2019-01-25T23:44:46.381Z,100129.33
2019-01-25T23:47:15.931Z,100137.08
2019-01-25T23:49:45.461Z,100132.74
2019-01-25T23:52:15.011Z,100130.44
2019-01-25T23:54:44.573Z,100123.49
2019-01-25T23:57:14.077Z,100133.77
2019-01-25T23:59:43.644Z,100128.22
